createdAt,value
2019-04-18T00:04:16.863Z,95.34
2019-04-18T00:19:49.993Z,94.64
2019-04-18T00:35:23.208Z,91.06
2019-04-18T00:50:56.917Z,84.69
2019-04-18T01:06:30.434Z,86.74
2019-04-18T01:22:03.326Z,91.70
2019-04-18T01:37:36.121Z,92.19
2019-04-18T01:53:08.806Z,89.84
2019-04-18T02:08:42.357Z,90.13
2019-04-18T02:24:15.868Z,90.34
2019-04-18T02:39:49.056Z,90.64
2019-04-18T02:55:24.217Z,94.62
2019-04-18T03:10:57.456Z,100.00
2019-04-18T03:26:30.902Z,100.00
2019-04-18T03:42:04.397Z,100.00
2019-04-18T03:57:37.281Z,100.00
2019-04-18T04:13:09.960Z,100.00
2019-04-18T04:28:43.049Z,100.00
2019-04-18T04:44:16.384Z,98.27
2019-04-18T04:59:52.047Z,100.00
2019-04-18T05:15:25.221Z,100.00
2019-04-18T05:30:58.410Z,100.00
2019-04-18T05:46:32.509Z,100.00
2019-04-18T06:02:11.401Z,100.00
2019-04-18T06:34:04.545Z,70.91
2019-04-18T06:49:46.766Z,71.31
2019-04-18T07:05:17.677Z,59.23
2019-04-18T07:20:53.597Z,57.34
2019-04-18T07:36:27.238Z,58.44
2019-04-18T07:51:59.883Z,58.40
2019-04-18T08:07:33.342Z,63.46
2019-04-18T08:23:19.873Z,62.26
2019-04-18T08:38:44.935Z,56.22
2019-04-18T08:54:21.140Z,65.23
2019-04-18T09:09:54.514Z,68.25
2019-04-18T09:25:29.145Z,71.67
2019-04-18T09:41:02.752Z,70.69
2019-04-18T09:56:35.738Z,67.65
2019-04-18T10:12:09.384Z,63.38
2019-04-18T10:27:52.570Z,58.96
2019-04-18T10:43:25.498Z,57.09
2019-04-18T10:58:58.817Z,54.02
2019-04-18T11:14:31.956Z,56.37
2019-04-18T11:30:06.245Z,61.52
2019-04-18T11:45:39.697Z,61.63
2019-04-18T12:01:21.072Z,61.25
2019-04-18T12:16:50.864Z,54.96
2019-04-18T12:32:24.125Z,54.44
2019-04-18T12:47:58.005Z,64.52
2019-04-18T13:03:31.880Z,64.59
2019-04-18T13:19:05.020Z,59.20
2019-04-18T13:34:37.989Z,62.55
2019-04-18T13:50:10.790Z,62.82
2019-04-18T14:05:43.731Z,61.89
2019-04-18T14:21:16.688Z,65.03
2019-04-18T14:36:49.529Z,68.25
2019-04-18T14:52:22.585Z,72.50
2019-04-18T15:07:56.579Z,75.28
2019-04-18T15:23:30.036Z,78.13
2019-04-18T15:39:03.276Z,81.93
2019-04-18T15:54:37.287Z,84.73
2019-04-18T16:10:18.906Z,86.88
2019-04-18T16:25:45.284Z,89.27
2019-04-18T16:41:19.039Z,91.60
2019-04-18T16:56:52.260Z,95.70
2019-04-18T17:12:25.111Z,97.64
2019-04-18T17:27:57.902Z,99.87
2019-04-18T17:43:31.320Z,100.00
2019-04-18T17:59:04.729Z,100.00
2019-04-18T18:14:45.161Z,97.76
2019-04-18T18:30:18.834Z,98.52
2019-04-18T18:45:51.274Z,100.00
2019-04-18T19:01:27.998Z,100.00
2019-04-18T19:17:08.754Z,100.00
2019-04-18T19:32:41.428Z,100.00
2019-04-18T19:48:10.232Z,100.00
2019-04-18T20:03:44.456Z,100.00
2019-04-18T20:19:21.847Z,100.00
2019-04-18T20:34:54.867Z,100.00
2019-04-18T20:50:39.438Z,100.00
2019-04-18T21:06:07.338Z,100.00
2019-04-18T21:21:41.523Z,100.00
2019-04-18T21:37:26.454Z,100.00
2019-04-18T21:52:50.148Z,100.00
2019-04-18T22:08:26.011Z,100.00
2019-04-18T22:24:00.720Z,100.00
2019-04-18T22:39:35.136Z,100.00
2019-04-18T22:55:14.937Z,100.00
2019-04-18T23:10:44.363Z,100.00
2019-04-18T23:26:18.977Z,100.00
2019-04-18T23:42:01.968Z,96.33
2019-04-18T23:57:29.422Z,97.95
